Time;durP1;ratioP1;P1;durP2;ratioP2;P2;SDS_P1;SDS_P2;PMS_P1;PMS_P2;Temp;Humidity;BMP_temperature;BMP_pressure;BME280_temperature;BME280_humidity;BME280_pressure;Samples;Min_cycle;Max_cycle;Signal;HPM_P1;HPM_P2
2022/12/24 00:00:08;;;;;;;73.57;32.23;;;;;;;;;;6238447;28;20025;-80
2022/12/24 00:03:08;;;;;;;90.00;32.73;;;;;;;;;;6219097;28;20010;-79
2022/12/24 00:06:12;;;;;;;62.90;29.47;;;;;;;;;;6224382;28;20017;-79
2022/12/24 00:09:12;;;;;;;50.75;25.33;;;;;;;;;;6231701;28;20009;-79
2022/12/24 00:12:12;;;;;;;71.57;29.90;;;;;;;;;;6211420;28;20009;-79
2022/12/24 00:15:13;;;;;;;64.17;30.97;;;;;;;;;;6231507;28;20484;-80
2022/12/24 00:18:13;;;;;;;62.57;30.23;;;;;;;;;;6235815;28;20112;-78
2022/12/24 00:21:14;;;;;;;79.97;31.63;;;;;;;;;;6241823;28;20036;-79
2022/12/24 00:24:14;;;;;;;62.33;34.13;;;;;;;;;;6226895;28;20362;-79
2022/12/24 00:27:14;;;;;;;75.30;33.87;;;;;;;;;;6225683;28;20028;-79
2022/12/24 00:30:14;;;;;;;77.07;35.33;;;;;;;;;;6232814;28;20025;-80
2022/12/24 00:33:15;;;;;;;71.97;35.20;;;;;;;;;;6236911;28;20055;-81
2022/12/24 00:36:15;;;;;;;91.30;36.47;;;;;;;;;;6237964;28;20060;-80
2022/12/24 00:39:15;;;;;;;81.43;36.27;;;;;;;;;;6224533;28;20235;-80
2022/12/24 00:42:15;;;;;;;70.40;34.80;;;;;;;;;;6246105;28;20017;-80
2022/12/24 00:45:16;;;;;;;90.17;36.73;;;;;;;;;;6263126;28;20022;-80
2022/12/24 00:48:16;;;;;;;67.23;31.37;;;;;;;;;;6228613;28;20045;-80
2022/12/24 00:51:16;;;;;;;105.43;37.88;;;;;;;;;;6247420;28;20028;-79
2022/12/24 00:54:16;;;;;;;52.73;26.63;;;;;;;;;;6222323;28;20064;-80
2022/12/24 00:57:17;;;;;;;67.83;31.30;;;;;;;;;;6249172;28;20407;-79
2022/12/24 01:00:17;;;;;;;76.03;33.37;;;;;;;;;;6228987;28;20231;-81
2022/12/24 01:03:17;;;;;;;91.63;35.27;;;;;;;;;;6266157;28;20317;-80
2022/12/24 01:06:19;;;;;;;78.40;37.10;;;;;;;;;;6241763;28;20044;-80
2022/12/24 01:09:19;;;;;;;73.15;33.95;;;;;;;;;;6249938;28;20492;-80
2022/12/24 01:12:19;;;;;;;64.93;26.27;;;;;;;;;;6237668;28;20025;-81
2022/12/24 01:15:19;;;;;;;80.57;33.60;;;;;;;;;;6250209;28;20041;-80
2022/12/24 01:18:20;;;;;;;85.83;35.37;;;;;;;;;;6236980;28;20100;-80
2022/12/24 01:21:20;;;;;;;80.87;31.30;;;;;;;;;;6258645;28;20381;-80
2022/12/24 01:24:20;;;;;;;69.53;33.33;;;;;;;;;;6241555;28;20084;-79
2022/12/24 01:27:21;;;;;;;73.53;31.63;;;;;;;;;;6237379;28;20024;-80
2022/12/24 01:30:21;;;;;;;90.33;34.57;;;;;;;;;;6242026;28;20037;-80
2022/12/24 01:33:21;;;;;;;86.53;33.83;;;;;;;;;;6231912;28;20029;-80
2022/12/24 01:36:21;;;;;;;84.90;33.07;;;;;;;;;;6238684;28;20029;-80
2022/12/24 01:39:21;;;;;;;332.87;48.17;;;;;;;;;;6241742;28;20046;-81
2022/12/24 01:45:46;;;;;;;165.35;48.70;;;;;;;;;;6251235;28;20018;-80
2022/12/24 01:48:48;;;;;;;287.88;54.67;;;;;;;;;;6240828;28;20480;-81
2022/12/24 01:51:51;;;;;;;86.95;38.33;;;;;;;;;;6229065;28;20021;-82
2022/12/24 01:54:53;;;;;;;285.15;53.22;;;;;;;;;;6222436;28;20082;-80
2022/12/24 01:57:55;;;;;;;382.65;55.25;;;;;;;;;;6244274;28;20025;-82
2022/12/24 02:00:55;;;;;;;;;;;;;;;;;;6247666;28;20044;-81
2022/12/24 02:03:56;;;;;;;279.83;43.85;;;;;;;;;;6248451;28;19905;-80
2022/12/24 02:06:56;;;;;;;191.93;38.97;;;;;;;;;;6253308;28;20057;-81
2022/12/24 02:09:58;;;;;;;238.07;41.43;;;;;;;;;;6241623;28;20072;-81
2022/12/24 02:12:58;;;;;;;313.83;46.67;;;;;;;;;;6230856;28;20031;-81
2022/12/24 02:16:18;;;;;;;216.67;37.77;;;;;;;;;;6224102;28;20400;-81
2022/12/24 02:19:45;;;;;;;163.00;33.80;;;;;;;;;;6228869;28;20032;-80
2022/12/24 02:22:51;;;;;;;284.38;38.63;;;;;;;;;;6234303;28;20484;-81
2022/12/24 02:25:51;;;;;;;111.78;28.20;;;;;;;;;;6233648;28;20029;-81
2022/12/24 02:29:10;;;;;;;130.57;32.03;;;;;;;;;;6223590;28;20345;-80
2022/12/24 02:32:19;;;;;;;151.02;30.77;;;;;;;;;;6247424;28;20017;-80
2022/12/24 02:35:22;;;;;;;156.25;32.15;;;;;;;;;;6247475;28;20033;-81
2022/12/24 02:38:23;;;;;;;132.30;29.42;;;;;;;;;;6232525;28;20395;-81
2022/12/24 02:41:25;;;;;;;127.57;29.95;;;;;;;;;;6250055;28;20045;-80
2022/12/24 02:44:26;;;;;;;108.65;32.08;;;;;;;;;;6223329;28;20063;-80
2022/12/24 02:47:27;;;;;;;387.88;48.75;;;;;;;;;;6222256;28;20012;-81
2022/12/24 02:50:27;;;;;;;179.13;32.87;;;;;;;;;;6232845;28;20025;-80
2022/12/24 02:53:27;;;;;;;109.40;30.27;;;;;;;;;;6231813;28;20035;-81
2022/12/24 02:56:27;;;;;;;70.40;25.83;;;;;;;;;;6240257;28;20068;-81
2022/12/24 02:59:40;;;;;;;83.30;33.45;;;;;;;;;;6237630;28;20060;-80
2022/12/24 03:02:51;;;;;;;186.23;47.17;;;;;;;;;;6219034;28;20021;-81
2022/12/24 03:05:59;;;;;;;91.60;35.33;;;;;;;;;;6237359;28;20013;-80
2022/12/24 03:09:04;;;;;;;114.60;34.25;;;;;;;;;;6227658;28;20264;-81
2022/12/24 03:12:14;;;;;;;249.63;42.20;;;;;;;;;;6219450;28;20017;-82
2022/12/24 03:15:16;;;;;;;182.90;35.97;;;;;;;;;;6229867;28;20017;-82
2022/12/24 03:18:18;;;;;;;333.17;50.72;;;;;;;;;;6237613;28;20509;-81
2022/12/24 03:21:22;;;;;;;149.73;35.72;;;;;;;;;;6247373;28;20109;-80
2022/12/24 03:24:23;;;;;;;173.63;39.65;;;;;;;;;;6240739;28;20049;-81
2022/12/24 03:27:24;;;;;;;158.40;39.47;;;;;;;;;;6229876;28;20017;-80
2022/12/24 03:30:25;;;;;;;141.70;35.03;;;;;;;;;;6264378;28;20230;-80
2022/12/24 03:33:25;;;;;;;126.97;29.20;;;;;;;;;;6260103;28;20285;-81
2022/12/24 03:36:29;;;;;;;116.90;35.22;;;;;;;;;;6232619;28;20076;-80
2022/12/24 03:39:29;;;;;;;102.97;32.83;;;;;;;;;;6238297;28;20411;-81
2022/12/24 03:42:30;;;;;;;103.40;35.00;;;;;;;;;;6225121;28;20025;-81
2022/12/24 03:45:30;;;;;;;87.77;30.50;;;;;;;;;;6234953;28;20001;-81
2022/12/24 03:48:31;;;;;;;85.87;29.83;;;;;;;;;;6255330;28;20092;-81
2022/12/24 03:51:32;;;;;;;95.47;28.23;;;;;;;;;;6229580;28;20026;-80
2022/12/24 03:54:32;;;;;;;75.40;28.63;;;;;;;;;;6239710;28;20112;-81
2022/12/24 03:57:32;;;;;;;69.73;26.00;;;;;;;;;;6253920;28;20384;-80
2022/12/24 04:00:32;;;;;;;87.60;28.47;;;;;;;;;;6238113;28;20206;-80
2022/12/24 04:03:33;;;;;;;74.73;28.20;;;;;;;;;;6250179;28;20017;-81
2022/12/24 04:06:33;;;;;;;93.27;29.20;;;;;;;;;;6230997;28;20021;-81
2022/12/24 04:09:33;;;;;;;80.37;28.33;;;;;;;;;;6225992;28;20381;-81
2022/12/24 04:12:33;;;;;;;80.60;27.93;;;;;;;;;;6224486;28;20108;-81
2022/12/24 04:15:33;;;;;;;76.40;22.20;;;;;;;;;;6259937;28;20028;-82
2022/12/24 04:18:34;;;;;;;72.60;25.47;;;;;;;;;;6239373;28;20021;-81
2022/12/24 04:21:34;;;;;;;76.67;26.70;;;;;;;;;;6225247;28;20028;-82
2022/12/24 04:24:34;;;;;;;74.60;28.33;;;;;;;;;;6226129;28;20426;-83
2022/12/24 04:27:35;;;;;;;77.53;30.27;;;;;;;;;;6254193;28;20033;-82
2022/12/24 04:30:37;;;;;;;73.10;30.50;;;;;;;;;;6240247;28;20018;-82
2022/12/24 04:33:37;;;;;;;;;;;;;;;;;;6219373;28;20018;-81
2022/12/24 04:36:37;;;;;;;65.28;27.38;;;;;;;;;;6235506;28;19919;-83
2022/12/24 04:39:37;;;;;;;67.27;22.13;;;;;;;;;;6244934;28;20144;-83
2022/12/24 04:42:37;;;;;;;75.23;27.53;;;;;;;;;;6268381;28;20032;-82
2022/12/24 04:45:38;;;;;;;82.27;30.97;;;;;;;;;;6240736;28;20053;-82
2022/12/24 04:48:38;;;;;;;76.20;28.67;;;;;;;;;;6244209;28;20120;-82
2022/12/24 04:51:38;;;;;;;68.67;31.33;;;;;;;;;;6242356;28;20075;-82
2022/12/24 04:54:38;;;;;;;74.53;29.87;;;;;;;;;;6248959;28;20052;-82
2022/12/24 04:57:39;;;;;;;69.22;28.83;;;;;;;;;;6225535;28;20371;-81
2022/12/24 05:00:39;;;;;;;88.93;30.10;;;;;;;;;;6255389;28;20061;-82
2022/12/24 05:03:40;;;;;;;83.90;27.73;;;;;;;;;;6236562;28;20396;-83
2022/12/24 05:06:40;;;;;;;77.83;28.37;;;;;;;;;;6241355;28;20029;-83
2022/12/24 05:09:40;;;;;;;67.60;27.43;;;;;;;;;;6240827;28;20328;-82
2022/12/24 05:12:40;;;;;;;70.97;29.85;;;;;;;;;;6245034;28;20021;-81
2022/12/24 05:15:40;;;;;;;69.27;29.20;;;;;;;;;;6233837;28;20066;-81
2022/12/24 05:18:40;;;;;;;68.30;25.60;;;;;;;;;;6249630;28;20032;-80
2022/12/24 05:21:41;;;;;;;74.90;27.37;;;;;;;;;;6240867;28;20025;-81
2022/12/24 05:28:00;;;;;;;71.22;24.48;;;;;;;;;;6235716;28;20026;-80
2022/12/24 05:31:00;;;;;;;56.83;22.93;;;;;;;;;;6226021;28;20032;-80
2022/12/24 05:34:02;;;;;;;63.90;24.03;;;;;;;;;;6256282;28;20024;-80
2022/12/24 05:37:02;;;;;;;209.30;29.75;;;;;;;;;;6221332;28;20102;-81
2022/12/24 05:40:02;;;;;;;64.67;22.60;;;;;;;;;;6230335;28;20664;-80
2022/12/24 05:43:02;;;;;;;271.10;37.03;;;;;;;;;;6244509;28;20306;-81
2022/12/24 05:46:04;;;;;;;229.65;35.60;;;;;;;;;;6229132;28;20294;-80
2022/12/24 05:49:04;;;;;;;;;;;;;;;;;;6233437;28;20021;-80
2022/12/24 05:52:04;;;;;;;74.53;27.38;;;;;;;;;;6225039;28;20185;-81
2022/12/24 05:55:05;;;;;;;74.97;22.57;;;;;;;;;;6220224;28;20056;-82
2022/12/24 05:58:05;;;;;;;226.27;35.73;;;;;;;;;;6252296;28;20029;-80
2022/12/24 06:01:06;;;;;;;248.67;35.03;;;;;;;;;;6245634;28;20028;-81
2022/12/24 06:04:06;;;;;;;114.10;19.13;;;;;;;;;;6250002;28;20017;-80
2022/12/24 06:07:06;;;;;;;415.63;41.57;;;;;;;;;;6227161;28;20018;-82
2022/12/24 06:10:06;;;;;;;315.90;34.05;;;;;;;;;;6231194;28;20314;-81
2022/12/24 06:13:07;;;;;;;293.30;35.10;;;;;;;;;;6227609;28;20433;-81
2022/12/24 06:16:08;;;;;;;315.30;33.63;;;;;;;;;;6222972;28;20404;-81
2022/12/24 06:19:08;;;;;;;346.55;36.70;;;;;;;;;;6231065;28;20013;-81
2022/12/24 06:22:08;;;;;;;376.77;63.07;;;;;;;;;;6254531;28;20068;-81
2022/12/24 06:25:09;;;;;;;95.53;33.90;;;;;;;;;;6234122;28;20033;-81
2022/12/24 06:28:09;;;;;;;220.53;77.70;;;;;;;;;;6237138;28;20030;-82
2022/12/24 06:31:10;;;;;;;622.27;117.53;;;;;;;;;;6225450;28;20056;-81
2022/12/24 06:34:10;;;;;;;361.20;60.67;;;;;;;;;;6216666;28;20032;-80
2022/12/24 06:37:17;;;;;;;353.10;83.50;;;;;;;;;;6219176;28;20125;-80
2022/12/24 06:40:17;;;;;;;704.75;169.27;;;;;;;;;;6216108;28;20054;-81
2022/12/24 06:43:17;;;;;;;428.00;102.40;;;;;;;;;;6211402;28;20014;-81
2022/12/24 06:46:18;;;;;;;152.33;44.93;;;;;;;;;;6223330;28;20529;-80
2022/12/24 06:49:18;;;;;;;364.87;55.00;;;;;;;;;;6213979;28;20324;-81
2022/12/24 06:52:18;;;;;;;109.50;32.33;;;;;;;;;;6216283;28;20029;-80
2022/12/24 06:55:20;;;;;;;123.78;34.35;;;;;;;;;;6216086;28;20054;-82
2022/12/24 06:58:20;;;;;;;164.73;42.37;;;;;;;;;;6226372;28;20109;-80
2022/12/24 07:01:20;;;;;;;458.63;78.43;;;;;;;;;;6221936;28;20021;-81
2022/12/24 07:04:20;;;;;;;707.27;191.37;;;;;;;;;;6222300;28;20045;-81
2022/12/24 07:07:21;;;;;;;432.30;94.03;;;;;;;;;;6228099;28;20048;-81
2022/12/24 07:10:21;;;;;;;353.73;73.30;;;;;;;;;;6229869;28;20049;-81
2022/12/24 07:13:21;;;;;;;79.17;31.77;;;;;;;;;;6233962;28;20021;-80
2022/12/24 07:16:21;;;;;;;107.43;31.13;;;;;;;;;;6205290;28;20413;-81
2022/12/24 07:19:22;;;;;;;257.25;49.58;;;;;;;;;;6226666;28;20098;-79
2022/12/24 07:22:22;;;;;;;89.67;31.90;;;;;;;;;;6226859;28;20046;-80
2022/12/24 07:25:22;;;;;;;92.10;32.87;;;;;;;;;;6214765;28;20026;-81
2022/12/24 07:28:22;;;;;;;84.80;30.87;;;;;;;;;;6217219;28;20021;-81
2022/12/24 07:31:23;;;;;;;87.07;32.50;;;;;;;;;;6222445;28;20681;-79
2022/12/24 07:34:24;;;;;;;76.13;31.20;;;;;;;;;;6219735;28;20021;-81
2022/12/24 07:37:24;;;;;;;100.40;34.45;;;;;;;;;;6219895;28;20030;-81
2022/12/24 07:40:25;;;;;;;103.13;37.93;;;;;;;;;;6226956;28;20057;-82
2022/12/24 07:43:25;;;;;;;73.70;29.43;;;;;;;;;;6214972;28;20282;-81
2022/12/24 07:46:26;;;;;;;89.57;27.97;;;;;;;;;;6226933;28;20022;-81
2022/12/24 07:49:26;;;;;;;69.30;24.73;;;;;;;;;;6209322;28;20026;-81
2022/12/24 07:52:26;;;;;;;73.43;25.97;;;;;;;;;;6208888;28;20076;-81
2022/12/24 07:55:26;;;;;;;69.47;25.17;;;;;;;;;;6231507;28;20087;-82
2022/12/24 07:58:26;;;;;;;59.63;22.67;;;;;;;;;;6216150;28;20517;-82
2022/12/24 08:01:27;;;;;;;73.20;23.47;;;;;;;;;;6201018;28;20708;-82
2022/12/24 08:04:29;;;;;;;65.15;24.95;;;;;;;;;;6218429;28;20491;-82
2022/12/24 08:07:30;;;;;;;66.60;25.67;;;;;;;;;;6196693;28;20029;-82
2022/12/24 08:10:31;;;;;;;70.37;30.47;;;;;;;;;;6208187;28;20017;-81
2022/12/24 08:13:32;;;;;;;69.32;31.60;;;;;;;;;;6202347;28;20022;-81
2022/12/24 08:16:32;;;;;;;65.67;26.63;;;;;;;;;;6205845;28;20037;-81
2022/12/24 08:19:32;;;;;;;58.17;27.55;;;;;;;;;;6200854;28;20014;-81
2022/12/24 08:22:32;;;;;;;68.25;30.50;;;;;;;;;;6211421;28;20018;-81
2022/12/24 08:25:33;;;;;;;74.75;28.77;;;;;;;;;;6215548;28;20505;-82
2022/12/24 08:28:33;;;;;;;61.87;27.07;;;;;;;;;;6227294;28;20022;-81
2022/12/24 08:31:35;;;;;;;64.17;28.50;;;;;;;;;;6208058;28;20076;-81
2022/12/24 08:34:35;;;;;;;55.17;27.00;;;;;;;;;;6214652;28;20034;-81
2022/12/24 08:37:35;;;;;;;64.50;28.20;;;;;;;;;;6221240;28;20018;-80
2022/12/24 08:40:35;;;;;;;56.33;26.73;;;;;;;;;;6211854;28;20074;-81
2022/12/24 08:43:36;;;;;;;55.23;25.93;;;;;;;;;;6227678;28;20065;-80
2022/12/24 08:46:36;;;;;;;66.83;29.00;;;;;;;;;;6216624;28;20022;-80
2022/12/24 08:49:36;;;;;;;53.90;27.03;;;;;;;;;;6221619;28;20392;-79
2022/12/24 08:52:36;;;;;;;66.53;27.43;;;;;;;;;;6215521;28;20033;-80
2022/12/24 08:55:37;;;;;;;67.03;29.87;;;;;;;;;;6213298;28;20018;-81
2022/12/24 08:58:37;;;;;;;61.87;26.63;;;;;;;;;;6213571;28;20224;-82
2022/12/24 09:01:37;;;;;;;57.13;23.27;;;;;;;;;;6210044;28;20022;-80
2022/12/24 09:04:41;;;;;;;50.53;22.83;;;;;;;;;;6211089;28;20022;-80
2022/12/24 09:07:41;;;;;;;45.38;22.40;;;;;;;;;;6205021;28;20084;-80
2022/12/24 09:10:41;;;;;;;48.67;24.77;;;;;;;;;;6217908;28;20025;-80
2022/12/24 09:13:43;;;;;;;43.97;25.27;;;;;;;;;;6210754;28;20022;-81
2022/12/24 09:16:43;;;;;;;48.13;23.25;;;;;;;;;;6210058;28;20045;-81
2022/12/24 09:19:43;;;;;;;63.23;26.77;;;;;;;;;;6217100;28;20428;-81
2022/12/24 09:22:44;;;;;;;53.33;27.97;;;;;;;;;;6225059;28;20513;-81
2022/12/24 09:25:44;;;;;;;62.90;31.40;;;;;;;;;;6213289;28;20018;-80
2022/12/24 09:28:44;;;;;;;44.93;24.13;;;;;;;;;;6205817;28;20064;-82
2022/12/24 09:31:44;;;;;;;56.23;26.47;;;;;;;;;;6207689;28;20018;-82
2022/12/24 09:34:44;;;;;;;57.70;25.50;;;;;;;;;;6222601;28;20235;-81
2022/12/24 09:37:45;;;;;;;54.13;24.57;;;;;;;;;;6218669;28;20074;-82
2022/12/24 09:40:46;;;;;;;56.08;25.00;;;;;;;;;;6233292;28;20065;-82
2022/12/24 09:43:53;;;;;;;54.67;26.03;;;;;;;;;;6250949;28;20025;-82
2022/12/24 09:46:53;;;;;;;60.15;28.48;;;;;;;;;;6242580;28;20022;-81
2022/12/24 09:49:55;;;;;;;61.47;27.70;;;;;;;;;;6228817;28;20017;-81
2022/12/24 09:52:56;;;;;;;69.00;27.88;;;;;;;;;;6242546;28;20222;-81
2022/12/24 09:55:57;;;;;;;66.18;33.72;;;;;;;;;;6236712;28;20028;-81
2022/12/24 09:58:59;;;;;;;67.60;28.10;;;;;;;;;;6258135;28;20029;-81
2022/12/24 10:01:59;;;;;;;;;;;;;;;;;;6252089;28;20033;-80
2022/12/24 10:04:59;;;;;;;39.55;21.10;;;;;;;;;;6257051;28;19909;-79
2022/12/24 10:08:10;;;;;;;50.93;24.53;;;;;;;;;;6226738;28;20021;-80
2022/12/24 10:11:23;;;;;;;40.60;20.63;;;;;;;;;;6231760;28;20499;-79
2022/12/24 10:14:29;;;;;;;49.92;24.15;;;;;;;;;;6239570;28;20025;-80
2022/12/24 10:17:45;;;;;;;50.03;24.60;;;;;;;;;;6249542;28;20041;-79
2022/12/24 10:21:05;;;;;;;52.30;27.85;;;;;;;;;;6241817;28;20021;-80
2022/12/24 10:24:24;;;;;;;27.75;18.23;;;;;;;;;;6255549;28;20026;-78
2022/12/24 10:27:27;;;;;;;58.03;27.33;;;;;;;;;;6243164;28;20067;-78
2022/12/24 10:30:27;;;;;;;45.80;21.27;;;;;;;;;;6214536;28;20025;-79
2022/12/24 10:33:37;;;;;;;51.63;24.33;;;;;;;;;;6230170;28;20024;-79
2022/12/24 10:36:37;;;;;;;34.88;17.60;;;;;;;;;;6234892;28;20039;-78
2022/12/24 10:39:38;;;;;;;47.63;22.70;;;;;;;;;;6245741;28;20049;-78
2022/12/24 10:42:41;;;;;;;66.57;25.77;;;;;;;;;;6203428;28;20109;-78
2022/12/24 10:45:43;;;;;;;30.63;15.55;;;;;;;;;;6234549;28;20013;-78
2022/12/24 10:48:43;;;;;;;;;;;;;;;;;;6239564;28;20108;-78
2022/12/24 10:51:48;;;;;;;23.70;10.40;;;;;;;;;;6240783;28;20285;-77
2022/12/24 10:55:07;;;;;;;24.42;11.85;;;;;;;;;;6229191;28;20026;-76
2022/12/24 10:58:14;;;;;;;31.60;13.52;;;;;;;;;;6248607;28;20473;-77
2022/12/24 11:01:14;;;;;;;37.22;16.50;;;;;;;;;;6227979;28;20025;-76
2022/12/24 11:04:19;;;;;;;32.50;13.00;;;;;;;;;;6236678;28;20097;-78
2022/12/24 11:07:20;;;;;;;44.03;17.38;;;;;;;;;;6235442;28;20122;-77
2022/12/24 11:10:24;;;;;;;37.25;17.95;;;;;;;;;;6231331;28;20076;-77
2022/12/24 11:13:39;;;;;;;28.50;14.10;;;;;;;;;;6229260;28;20503;-77
2022/12/24 11:16:46;;;;;;;38.13;15.00;;;;;;;;;;6238422;28;20491;-78
2022/12/24 11:19:47;;;;;;;45.63;19.02;;;;;;;;;;6222634;28;20055;-78
2022/12/24 11:22:48;;;;;;;33.75;14.15;;;;;;;;;;6216167;28;20018;-79
2022/12/24 11:25:49;;;;;;;22.80;10.82;;;;;;;;;;6225383;28;20021;-78
2022/12/24 11:29:04;;;;;;;28.05;10.70;;;;;;;;;;6252430;28;20536;-78
2022/12/24 11:32:34;;;;;;;26.80;12.00;;;;;;;;;;6241346;28;20033;-78
2022/12/24 11:35:39;;;;;;;30.75;12.52;;;;;;;;;;6208744;28;20072;-79
2022/12/24 11:38:39;;;;;;;26.10;12.65;;;;;;;;;;6234236;28;20029;-78
2022/12/24 11:41:39;;;;;;;19.77;10.37;;;;;;;;;;6233347;28;20054;-78
2022/12/24 11:44:47;;;;;;;20.63;10.63;;;;;;;;;;6227988;28;20077;-77
2022/12/24 11:47:47;;;;;;;18.42;8.23;;;;;;;;;;6232242;28;20108;-78
2022/12/24 11:50:53;;;;;;;13.47;7.90;;;;;;;;;;6236520;28;20032;-78
2022/12/24 11:54:13;;;;;;;17.80;7.78;;;;;;;;;;6218962;28;20053;-79
2022/12/24 11:57:16;;;;;;;27.45;12.60;;;;;;;;;;6236460;28;20037;-78
2022/12/24 12:00:16;;;;;;;19.33;7.97;;;;;;;;;;6224154;28;20043;-78
2022/12/24 12:03:31;;;;;;;13.60;7.83;;;;;;;;;;6239443;28;20021;-78
2022/12/24 12:06:40;;;;;;;14.60;6.65;;;;;;;;;;6225727;28;20084;-78
2022/12/24 12:09:47;;;;;;;15.90;8.10;;;;;;;;;;6251678;28;20103;-77
2022/12/24 12:12:53;;;;;;;17.75;8.80;;;;;;;;;;6248570;28;20521;-77
2022/12/24 12:16:12;;;;;;;13.82;8.38;;;;;;;;;;6248127;28;20096;-78
2022/12/24 12:19:12;;;;;;;10.55;6.35;;;;;;;;;;6239044;28;20030;-77
2022/12/24 12:22:31;;;;;;;26.00;10.67;;;;;;;;;;6225131;28;20021;-78
2022/12/24 12:25:36;;;;;;;21.98;8.25;;;;;;;;;;6252902;28;20515;-77
2022/12/24 12:28:39;;;;;;;34.95;18.55;;;;;;;;;;6238180;28;20051;-77
2022/12/24 12:31:50;;;;;;;30.45;17.48;;;;;;;;;;6243809;28;20026;-77
2022/12/24 12:35:04;;;;;;;30.45;15.93;;;;;;;;;;6259889;28;20301;-77
2022/12/24 12:38:08;;;;;;;34.08;14.80;;;;;;;;;;6251812;28;20079;-77
2022/12/24 12:41:11;;;;;;;23.23;12.63;;;;;;;;;;6250497;28;20516;-78
2022/12/24 12:44:20;;;;;;;38.10;17.27;;;;;;;;;;6229755;28;20030;-78
2022/12/24 12:47:30;;;;;;;38.70;16.00;;;;;;;;;;6268851;28;20493;-79
2022/12/24 12:50:33;;;;;;;26.80;12.27;;;;;;;;;;6255067;28;20016;-78
2022/12/24 12:53:39;;;;;;;37.72;17.05;;;;;;;;;;6241113;28;20025;-79
2022/12/24 12:56:42;;;;;;;35.03;13.68;;;;;;;;;;6236765;28;20025;-78
2022/12/24 12:59:45;;;;;;;36.58;18.52;;;;;;;;;;6258805;28;20112;-78
2022/12/24 13:02:52;;;;;;;51.67;23.70;;;;;;;;;;6247673;28;20029;-79
2022/12/24 13:06:11;;;;;;;49.50;21.77;;;;;;;;;;6229452;28;20163;-79
2022/12/24 13:09:30;;;;;;;27.55;14.20;;;;;;;;;;6244132;28;20113;-79
2022/12/24 13:12:43;;;;;;;34.35;14.32;;;;;;;;;;6244846;28;20025;-78
2022/12/24 13:16:11;;;;;;;26.50;11.20;;;;;;;;;;6253132;28;20018;-80
2022/12/24 13:19:30;;;;;;;18.05;9.93;;;;;;;;;;6245369;28;20063;-80
2022/12/24 13:22:32;;;;;;;40.22;19.25;;;;;;;;;;6249635;28;20092;-80
2022/12/24 13:25:38;;;;;;;29.33;15.60;;;;;;;;;;6281648;28;20044;-80
2022/12/24 13:28:38;;;;;;;30.30;15.57;;;;;;;;;;6266266;28;20354;-80
2022/12/24 13:31:38;;;;;;;32.60;15.83;;;;;;;;;;6246222;28;20017;-80
2022/12/24 13:34:38;;;;;;;42.07;20.07;;;;;;;;;;6223022;28;20108;-80
2022/12/24 13:37:39;;;;;;;29.20;15.50;;;;;;;;;;6238541;28;20018;-81
2022/12/24 13:40:39;;;;;;;34.70;16.40;;;;;;;;;;6228352;28;20045;-81
2022/12/24 13:44:00;;;;;;;60.10;28.87;;;;;;;;;;6240811;28;20025;-80
2022/12/24 13:47:04;;;;;;;49.88;24.20;;;;;;;;;;6217931;28;20064;-80
2022/12/24 13:50:13;;;;;;;88.80;37.55;;;;;;;;;;6232547;28;20032;-80
2022/12/24 13:53:36;;;;;;;57.13;26.77;;;;;;;;;;6228077;28;20089;-79
2022/12/24 13:56:36;;;;;;;45.83;22.52;;;;;;;;;;6240515;28;20179;-80
2022/12/24 13:59:38;;;;;;;28.13;15.00;;;;;;;;;;6230936;28;20306;-81
2022/12/24 14:02:46;;;;;;;42.80;22.15;;;;;;;;;;6237855;28;20026;-81
2022/12/24 14:05:48;;;;;;;70.65;28.75;;;;;;;;;;6234309;28;20022;-81
2022/12/24 14:08:50;;;;;;;50.67;22.85;;;;;;;;;;6237818;28;20021;-80
2022/12/24 14:11:50;;;;;;;;;;;;;;;;;;6237765;28;20022;-80
2022/12/24 14:14:51;;;;;;;56.15;21.85;;;;;;;;;;6255352;28;19931;-81
2022/12/24 14:17:51;;;;;;;24.33;12.23;;;;;;;;;;6263732;28;20032;-81
2022/12/24 14:20:52;;;;;;;41.67;18.50;;;;;;;;;;6257614;28;20358;-81
2022/12/24 14:23:58;;;;;;;32.10;14.50;;;;;;;;;;6228230;28;20009;-81
2022/12/24 14:27:05;;;;;;;41.33;19.42;;;;;;;;;;6252782;28;20021;-81
2022/12/24 14:30:18;;;;;;;66.32;30.77;;;;;;;;;;6256611;28;20017;-82
2022/12/24 14:33:27;;;;;;;75.75;32.33;;;;;;;;;;6241088;28;20167;-82
2022/12/24 14:36:28;;;;;;;73.95;30.75;;;;;;;;;;6238474;28;20020;-82
2022/12/24 14:39:33;;;;;;;81.20;34.55;;;;;;;;;;6225104;28;20440;-79
2022/12/24 14:42:37;;;;;;;115.80;46.83;;;;;;;;;;6234871;28;20017;-79
2022/12/24 14:45:45;;;;;;;77.13;30.83;;;;;;;;;;6241192;28;20027;-81
2022/12/24 14:48:56;;;;;;;78.15;32.65;;;;;;;;;;6243641;28;20462;-81
2022/12/24 14:52:19;;;;;;;56.45;24.48;;;;;;;;;;6236126;28;20025;-82
2022/12/24 14:55:27;;;;;;;83.07;34.13;;;;;;;;;;6223735;28;20198;-81
2022/12/24 14:58:31;;;;;;;90.97;45.20;;;;;;;;;;6241128;28;20048;-81
2022/12/24 15:01:33;;;;;;;56.78;24.15;;;;;;;;;;6240117;28;20503;-80
2022/12/24 15:04:33;;;;;;;80.78;37.80;;;;;;;;;;6224733;28;20009;-81
2022/12/24 15:07:34;;;;;;;92.00;45.53;;;;;;;;;;6237556;28;20018;-81
2022/12/24 15:10:36;;;;;;;79.15;39.08;;;;;;;;;;6244758;28;20080;-82
2022/12/24 15:13:41;;;;;;;96.60;47.08;;;;;;;;;;6246416;28;20395;-79
2022/12/24 15:16:53;;;;;;;58.85;29.55;;;;;;;;;;6234630;28;20017;-80
2022/12/24 15:19:53;;;;;;;51.50;23.92;;;;;;;;;;6251720;28;20075;-79
2022/12/24 15:22:54;;;;;;;73.43;31.37;;;;;;;;;;6247732;28;20025;-80
2022/12/24 15:26:10;;;;;;;64.60;27.58;;;;;;;;;;6239422;28;20009;-80
2022/12/24 15:29:16;;;;;;;70.85;31.50;;;;;;;;;;6263884;28;20009;-80
2022/12/24 15:32:17;;;;;;;52.47;24.40;;;;;;;;;;6247842;28;20021;-80
2022/12/24 15:35:36;;;;;;;61.47;23.17;;;;;;;;;;6236254;28;20017;-80
2022/12/24 15:38:38;;;;;;;57.58;23.67;;;;;;;;;;6252040;28;20017;-80
2022/12/24 15:42:12;;;;;;;64.70;29.63;;;;;;;;;;6240996;28;20045;-80
2022/12/24 15:45:03;;;;;;;69.22;29.77;;;;;;;;;;6254290;28;20033;-80
2022/12/24 15:48:08;;;;;;;50.78;24.42;;;;;;;;;;6252570;28;20021;-81
2022/12/24 15:51:09;;;;;;;49.88;22.50;;;;;;;;;;6229099;28;20017;-80
2022/12/24 15:54:11;;;;;;;49.17;23.27;;;;;;;;;;6242031;28;20021;-81
2022/12/24 15:57:32;;;;;;;52.10;23.98;;;;;;;;;;6229401;28;20354;-81
2022/12/24 16:00:32;;;;;;;46.22;20.75;;;;;;;;;;6230509;28;20017;-81
2022/12/24 16:03:34;;;;;;;61.40;26.27;;;;;;;;;;6229846;28;20094;-80
2022/12/24 16:06:53;;;;;;;55.80;24.08;;;;;;;;;;6226765;28;20079;-81
2022/12/24 16:10:13;;;;;;;60.30;24.25;;;;;;;;;;6256386;28;20025;-81
2022/12/24 16:13:17;;;;;;;66.53;27.42;;;;;;;;;;6241267;28;20079;-80
2022/12/24 16:16:19;;;;;;;58.80;25.90;;;;;;;;;;6243489;28;20034;-81
2022/12/24 16:19:23;;;;;;;64.00;24.38;;;;;;;;;;6254010;28;20079;-80
2022/12/24 16:22:36;;;;;;;78.40;33.50;;;;;;;;;;6264513;28;20036;-80
2022/12/24 16:25:36;;;;;;;89.30;59.53;;;;;;;;;;6262671;28;20094;-79
2022/12/24 16:28:36;;;;;;;60.93;31.27;;;;;;;;;;6236576;28;20473;-80
2022/12/24 16:31:38;;;;;;;85.85;48.50;;;;;;;;;;6243810;28;20060;-80
2022/12/24 16:34:38;;;;;;;;;;;;;;;;;;6233567;28;20049;-80
2022/12/24 16:37:38;;;;;;;72.75;34.10;;;;;;;;;;6259210;28;19926;-79
2022/12/24 16:40:39;;;;;;;106.15;63.47;;;;;;;;;;6250149;28;20079;-80
2022/12/24 16:43:48;;;;;;;92.50;52.47;;;;;;;;;;6255655;28;20472;-79
2022/12/24 16:46:48;;;;;;;89.78;50.40;;;;;;;;;;6261168;28;20017;-79
2022/12/24 16:49:49;;;;;;;257.50;168.47;;;;;;;;;;6251914;28;20024;-79
2022/12/24 16:52:50;;;;;;;165.27;91.17;;;;;;;;;;6243960;28;20029;-79
2022/12/24 16:55:50;;;;;;;57.07;26.80;;;;;;;;;;6258644;28;20033;-80
2022/12/24 16:58:50;;;;;;;87.60;36.27;;;;;;;;;;6261456;28;20036;-81
2022/12/24 17:01:51;;;;;;;81.63;36.95;;;;;;;;;;6247708;28;20028;-78
2022/12/24 17:04:51;;;;;;;70.93;28.97;;;;;;;;;;6250808;28;20031;-80
2022/12/24 17:07:51;;;;;;;160.07;83.03;;;;;;;;;;6243475;28;20431;-78
2022/12/24 17:10:51;;;;;;;170.80;71.20;;;;;;;;;;6243738;28;20465;-78
2022/12/24 17:13:51;;;;;;;94.38;41.53;;;;;;;;;;6244961;28;20022;-79
2022/12/24 17:16:52;;;;;;;125.30;66.90;;;;;;;;;;6232147;28;20071;-80
2022/12/24 17:19:53;;;;;;;89.50;38.20;;;;;;;;;;6243514;28;20104;-79
2022/12/24 17:22:53;;;;;;;63.22;26.88;;;;;;;;;;6240323;28;20203;-79
2022/12/24 17:25:54;;;;;;;59.60;26.67;;;;;;;;;;6229823;28;20021;-80
2022/12/24 17:28:54;;;;;;;70.53;34.57;;;;;;;;;;6244470;28;20017;-79
2022/12/24 17:31:55;;;;;;;85.27;39.63;;;;;;;;;;6231901;28;20047;-80
2022/12/24 17:34:55;;;;;;;91.63;45.53;;;;;;;;;;6237704;28;20041;-79
2022/12/24 17:37:55;;;;;;;85.57;38.53;;;;;;;;;;6243664;28;20021;-78
2022/12/24 17:41:03;;;;;;;82.67;34.23;;;;;;;;;;6252934;28;20379;-79
2022/12/24 17:44:03;;;;;;;86.25;46.42;;;;;;;;;;6242093;28;20043;-79
2022/12/24 17:47:04;;;;;;;99.23;59.20;;;;;;;;;;6251541;28;20428;-78
2022/12/24 17:50:04;;;;;;;112.87;61.27;;;;;;;;;;6227533;28;20538;-79